Time;durP1;ratioP1;P1;durP2;ratioP2;P2;SDS_P1;SDS_P2;PMS_P1;PMS_P2;Temp;Humidity;BMP_temperature;BMP_pressure;BME280_temperature;BME280_humidity;BME280_pressure;Samples;Min_cycle;Max_cycle;Signal;HPM_P1;HPM_P2
2022/08/27 00:02:24;;;;;;;7.30;3.25;;;;;;;16.80;76.80;101677.56;5103493;28;20034;-55
2022/08/27 00:04:49;;;;;;;4.88;2.70;;;;;;;16.80;76.95;101674.88;5097391;28;20031;-57
2022/08/27 00:07:15;;;;;;;9.10;3.20;;;;;;;16.69;76.36;101680.66;5104540;28;20106;-59
2022/08/27 00:09:41;;;;;;;12.30;3.30;;;;;;;16.73;77.01;101671.25;5103328;28;20102;-56
2022/08/27 00:12:07;;;;;;;6.93;3.08;;;;;;;16.72;77.12;101674.94;5104703;28;20099;-58
2022/08/27 00:14:34;;;;;;;8.52;3.20;;;;;;;16.72;77.81;101676.78;5092823;28;20435;-57
2022/08/27 00:16:59;;;;;;;8.68;3.28;;;;;;;16.66;77.16;101665.78;5095430;28;20092;-58
2022/08/27 00:19:25;;;;;;;8.65;3.30;;;;;;;16.63;77.44;101666.16;5101531;28;20055;-56
2022/08/27 00:21:50;;;;;;;7.70;3.15;;;;;;;16.56;77.40;101664.38;5105424;28;20096;-56
2022/08/27 00:24:16;;;;;;;10.30;3.53;;;;;;;16.55;77.96;101668.91;5079318;28;20130;-57
2022/08/27 00:26:41;;;;;;;6.90;3.20;;;;;;;16.50;77.67;101672.13;5102003;28;20041;-57
2022/08/27 00:29:07;;;;;;;12.05;3.60;;;;;;;16.49;78.14;101669.63;5102215;28;20027;-58
2022/08/27 00:31:33;;;;;;;6.43;3.45;;;;;;;16.49;77.57;101669.63;5102660;28;20055;-56
2022/08/27 00:33:58;;;;;;;7.90;3.30;;;;;;;16.42;78.34;101661.47;5104398;28;20399;-58
2022/08/27 00:36:24;;;;;;;7.40;3.40;;;;;;;16.32;79.19;101663.59;5103773;28;20084;-58
2022/08/27 00:38:49;;;;;;;6.00;2.90;;;;;;;16.26;79.85;101659.78;5100192;28;20043;-57
2022/08/27 00:41:16;;;;;;;5.03;3.10;;;;;;;16.20;79.45;101661.34;5100592;28;20020;-58
2022/08/27 00:43:53;;;;;;;6.10;3.00;;;;;;;16.18;79.51;101665.19;5098376;27;20120;-57
2022/08/27 00:46:37;;;;;;;5.35;3.20;;;;;;;16.19;79.32;101662.31;5097687;28;20024;-58
2022/08/27 00:49:17;;;;;;;9.10;3.67;;;;;;;16.06;79.71;101659.41;5095914;28;20047;-56
2022/08/27 00:51:50;;;;;;;9.52;3.55;;;;;;;16.11;79.90;101663.22;5101993;28;20039;-57
2022/08/27 00:54:16;;;;;;;10.35;3.70;;;;;;;16.04;80.01;101662.25;5090224;28;20043;-56
2022/08/27 00:56:43;;;;;;;9.88;4.00;;;;;;;15.97;80.37;101670.19;5100185;28;20035;-56
2022/08/27 00:59:10;;;;;;;7.43;3.42;;;;;;;16.03;80.41;101671.28;5103480;28;20523;-56
2022/08/27 01:02:17;;;;;;;10.32;3.83;;;;;;;16.03;80.73;101663.28;5101328;28;20024;-59
2022/08/27 01:04:22;;;;;;;7.95;3.65;;;;;;;16.02;80.26;101675.00;5102114;28;20044;-59
2022/08/27 01:06:48;;;;;;;8.50;3.83;;;;;;;15.95;80.18;101669.53;5102980;28;20054;-56
2022/08/27 01:09:16;;;;;;;9.93;4.38;;;;;;;15.83;80.86;101669.06;5102920;28;20453;-56
2022/08/27 01:11:43;;;;;;;9.73;3.67;;;;;;;15.72;80.88;101667.63;5103105;28;20053;-56
2022/08/27 01:14:08;;;;;;;10.23;4.50;;;;;;;15.60;81.24;101663.69;5102174;28;20084;-57
2022/08/27 01:16:38;;;;;;;11.70;3.80;;;;;;;15.66;82.26;101660.31;5102329;28;20025;-59
2022/08/27 01:19:09;;;;;;;7.43;3.70;;;;;;;15.61;81.59;101657.31;5098601;28;20077;-57
2022/08/27 01:21:59;;;;;;;8.57;3.70;;;;;;;15.50;81.35;101649.69;5091788;28;20111;-57
2022/08/27 01:24:31;;;;;;;10.00;4.20;;;;;;;15.48;82.97;101651.72;5101543;28;20545;-58
2022/08/27 01:26:58;;;;;;;9.23;3.80;;;;;;;15.55;82.17;101652.66;5089925;28;20056;-59
2022/08/27 01:29:24;;;;;;;12.95;4.03;;;;;;;15.57;82.05;101653.31;5099515;28;20423;-56
2022/08/27 01:31:50;;;;;;;9.60;4.22;;;;;;;15.58;82.03;101653.16;5097376;28;20089;-57
2022/08/27 01:34:15;;;;;;;8.52;3.97;;;;;;;15.56;82.24;101654.34;5102392;28;20032;-57
2022/08/27 01:36:40;;;;;;;9.32;3.90;;;;;;;15.53;82.38;101652.00;5102361;28;20031;-58
2022/08/27 01:39:06;;;;;;;8.32;4.07;;;;;;;15.52;81.96;101647.66;5100059;28;20050;-57
2022/08/27 01:41:31;;;;;;;8.38;4.15;;;;;;;15.62;81.69;101658.97;5099596;28;20043;-56
2022/08/27 01:43:56;;;;;;;6.80;4.00;;;;;;;15.54;82.16;101651.00;5087692;28;20042;-56
2022/08/27 01:46:24;;;;;;;12.75;4.30;;;;;;;15.56;81.87;101651.66;5101525;28;20028;-57
2022/08/27 01:48:50;;;;;;;11.75;4.30;;;;;;;15.50;82.64;101649.69;5101269;28;20051;-59
2022/08/27 01:51:16;;;;;;;8.20;4.00;;;;;;;15.54;82.28;101651.00;5100471;28;20680;-56
2022/08/27 01:53:42;;;;;;;9.30;3.95;;;;;;;15.53;82.57;101649.31;5103114;28;20061;-57
2022/08/27 01:56:07;;;;;;;6.95;4.13;;;;;;;15.47;82.21;101650.88;5100722;28;20436;-56
2022/08/27 01:58:33;;;;;;;9.38;4.00;;;;;;;15.50;82.83;101652.34;5103343;28;20044;-56
2022/08/27 02:01:11;;;;;;;7.97;4.13;;;;;;;15.52;82.32;101645.00;5102347;28;20039;-56
2022/08/27 02:03:39;;;;;;;6.20;4.00;;;;;;;15.20;82.13;101640.44;5099967;28;20088;-57
2022/08/27 02:06:06;;;;;;;9.45;4.30;;;;;;;15.37;82.64;101645.72;5102991;28;20498;-57
2022/08/27 02:08:32;;;;;;;14.25;4.80;;;;;;;15.39;82.24;101643.72;5106981;28;20027;-56
2022/08/27 02:10:59;;;;;;;7.97;4.60;;;;;;;15.37;82.20;101645.72;5106763;28;20042;-57
2022/08/27 02:13:24;;;;;;;12.13;4.80;;;;;;;15.36;82.32;101644.06;5107242;28;20453;-56
2022/08/27 02:15:50;;;;;;;10.38;4.70;;;;;;;15.32;82.08;101637.41;5107684;28;20035;-56
2022/08/27 02:18:15;;;;;;;10.18;4.30;;;;;;;15.27;83.19;101634.41;5102714;28;20032;-59
2022/08/27 02:20:44;;;;;;;10.65;4.55;;;;;;;15.26;82.99;101638.09;5101124;28;20043;-57
2022/08/27 02:23:10;;;;;;;7.60;4.32;;;;;;;15.16;82.68;101643.63;5102787;28;20746;-56
2022/08/27 02:25:36;;;;;;;10.55;4.65;;;;;;;15.17;82.98;101632.78;5105120;28;20606;-56
2022/08/27 02:28:03;;;;;;;7.25;4.78;;;;;;;15.10;83.25;101636.31;5106863;28;20082;-56
2022/08/27 02:30:33;;;;;;;10.68;5.00;;;;;;;15.00;83.30;101633.84;5105231;28;20054;-58
2022/08/27 02:33:00;;;;;;;7.05;4.75;;;;;;;15.03;83.39;101623.66;5098698;28;20032;-57
2022/08/27 02:35:27;;;;;;;8.95;4.72;;;;;;;15.04;83.18;101629.81;5102707;28;20023;-56
2022/08/27 02:37:52;;;;;;;12.32;5.18;;;;;;;14.97;83.70;101626.16;5104488;28;20405;-56
2022/08/27 02:40:21;;;;;;;9.93;5.10;;;;;;;15.00;83.33;101628.50;5105928;28;20122;-57
2022/08/27 02:42:47;;;;;;;7.65;4.90;;;;;;;14.91;83.26;101615.16;5103943;28;20023;-58
2022/08/27 02:45:14;;;;;;;9.80;5.22;;;;;;;14.95;83.72;101621.00;5104422;28;20028;-57
2022/08/27 02:47:39;;;;;;;8.30;5.00;;;;;;;15.01;83.70;101624.81;5104339;28;20129;-56
2022/08/27 02:50:06;;;;;;;11.27;4.90;;;;;;;14.98;82.98;101627.81;5104813;28;20108;-56
2022/08/27 02:52:31;;;;;;;9.23;5.15;;;;;;;14.93;83.20;101629.19;5103568;28;20030;-57
2022/08/27 02:54:57;;;;;;;11.82;5.05;;;;;;;14.93;83.45;101629.19;5103796;28;20044;-56
2022/08/27 02:57:23;;;;;;;9.30;5.07;;;;;;;14.93;83.54;101623.84;5106579;28;20562;-57
2022/08/27 02:59:50;;;;;;;8.93;5.10;;;;;;;15.02;83.35;101632.69;5087442;28;20114;-57
2022/08/27 03:02:15;;;;;;;10.77;4.97;;;;;;;15.02;83.51;101623.81;5101830;28;20035;-57
2022/08/27 03:04:42;;;;;;;8.38;5.32;;;;;;;15.01;84.01;101630.16;5105831;28;20038;-56
2022/08/27 03:07:07;;;;;;;13.00;5.53;;;;;;;14.89;83.92;101627.84;5105606;28;20035;-56
2022/08/27 03:09:33;;;;;;;9.65;5.45;;;;;;;15.03;83.83;101634.34;5106049;28;20024;-56
2022/08/27 03:12:00;;;;;;;10.85;5.72;;;;;;;14.97;84.01;101631.50;5103802;28;20016;-56
2022/08/27 03:14:26;;;;;;;15.50;5.60;;;;;;;15.04;83.90;101624.47;5104861;28;20472;-58
2022/08/27 03:16:51;;;;;;;9.65;5.45;;;;;;;14.97;84.15;101634.19;5099769;28;20092;-58
2022/08/27 03:19:17;;;;;;;10.18;5.50;;;;;;;14.95;84.35;101625.50;5100432;27;20034;-59
2022/08/27 03:21:43;;;;;;;11.18;5.70;;;;;;;15.02;84.13;101631.81;5096690;28;20504;-56
2022/08/27 03:24:08;;;;;;;8.93;5.38;;;;;;;15.02;84.29;101624.66;5101192;28;20412;-56
2022/08/27 03:26:34;;;;;;;8.88;5.47;;;;;;;15.01;84.32;101630.16;5102355;28;20027;-57
2022/08/27 03:28:59;;;;;;;9.75;5.72;;;;;;;15.01;84.18;101630.97;5105696;28;20035;-57
2022/08/27 03:31:28;;;;;;;11.63;5.60;;;;;;;15.05;84.44;101628.81;5084990;28;20039;-56
2022/08/27 03:33:56;;;;;;;12.98;6.10;;;;;;;15.01;84.72;101630.16;5104451;28;20041;-57
2022/08/27 03:36:21;;;;;;;14.27;6.30;;;;;;;15.00;84.94;101631.19;5105292;28;20107;-56
2022/08/27 03:38:47;;;;;;;11.10;6.50;;;;;;;14.99;84.76;101629.50;5099253;27;20111;-56
2022/08/27 03:41:12;;;;;;;12.63;6.80;;;;;;;14.86;85.15;101630.84;5095720;28;20035;-56
2022/08/27 03:43:38;;;;;;;13.57;6.55;;;;;;;14.92;84.73;101626.69;5103382;28;20027;-59
2022/08/27 03:46:03;;;;;;;10.68;6.07;;;;;;;14.89;85.47;101629.69;5103039;28;20055;-58
2022/08/27 03:48:30;;;;;;;12.05;6.25;;;;;;;14.88;84.94;101636.03;5103570;28;20101;-57
2022/08/27 03:50:56;;;;;;;11.57;6.60;;;;;;;14.83;84.71;101641.88;5097460;28;20955;-56
2022/08/27 03:53:21;;;;;;;11.15;6.35;;;;;;;14.77;84.83;101629.22;5101715;28;20037;-57
2022/08/27 03:55:47;;;;;;;11.95;6.40;;;;;;;14.71;85.03;101629.88;5099699;28;20039;-57
2022/08/27 03:58:14;;;;;;;12.57;6.85;;;;;;;14.87;85.60;101634.38;5101154;28;20035;-56
2022/08/27 04:00:40;;;;;;;10.23;6.38;;;;;;;14.87;85.24;101635.22;5104839;28;20027;-55
2022/08/27 04:03:06;;;;;;;11.75;6.55;;;;;;;14.92;85.70;101627.50;5105383;28;20092;-59
2022/08/27 04:05:33;;;;;;;12.15;6.30;;;;;;;14.87;85.34;101631.69;5101327;27;20023;-56
2022/08/27 04:07:59;;;;;;;14.45;6.60;;;;;;;14.87;85.21;101637.88;5104261;28;20122;-56
2022/08/27 04:10:26;;;;;;;12.20;6.70;;;;;;;14.93;85.29;101634.53;5099931;28;20106;-55
2022/08/27 04:12:51;;;;;;;14.10;6.55;;;;;;;14.89;85.48;101641.22;5102372;27;20675;-56
2022/08/27 04:15:17;;;;;;;12.27;6.50;;;;;;;14.89;85.46;101633.19;5097931;28;20104;-56
2022/08/27 04:17:42;;;;;;;11.30;6.13;;;;;;;14.90;85.55;101632.19;5100768;28;20127;-56
2022/08/27 04:20:09;;;;;;;12.80;6.57;;;;;;;14.92;85.72;101632.84;5101849;28;20122;-56
2022/08/27 04:22:35;;;;;;;13.57;6.40;;;;;;;14.90;85.89;101629.53;5093933;28;20027;-56
2022/08/27 04:25:00;;;;;;;11.45;6.65;;;;;;;14.91;85.75;101622.34;5097805;28;20136;-57
2022/08/27 04:27:26;;;;;;;11.07;6.38;;;;;;;14.86;85.63;101627.38;5101110;28;20494;-56
2022/08/27 04:29:56;;;;;;;10.95;6.55;;;;;;;14.83;86.40;101631.22;5100755;28;20392;-57
2022/08/27 04:32:22;;;;;;;9.10;6.40;;;;;;;14.88;85.51;101631.53;5103616;28;20054;-58
2022/08/27 04:34:47;;;;;;;11.35;6.53;;;;;;;14.81;86.52;101629.72;5101209;28;20699;-58
2022/08/27 04:37:12;;;;;;;10.80;6.60;;;;;;;14.75;85.71;101631.25;5102438;28;20549;-56
2022/08/27 04:39:38;;;;;;;12.73;6.40;;;;;;;14.74;85.92;101632.19;5092516;28;20081;-56
2022/08/27 04:42:03;;;;;;;12.30;6.80;;;;;;;14.75;85.80;101633.91;5102362;28;20027;-57
2022/08/27 04:44:31;;;;;;;11.52;6.50;;;;;;;14.75;85.82;101636.56;5101690;28;20264;-58
2022/08/27 04:47:00;;;;;;;12.45;6.40;;;;;;;14.73;85.47;101638.53;5104540;28;20679;-58
2022/08/27 04:49:26;;;;;;;12.07;6.50;;;;;;;14.71;86.86;101648.56;5105121;28;20473;-56
2022/08/27 04:51:52;;;;;;;14.27;7.00;;;;;;;14.75;86.74;101641.91;5102164;28;20054;-57
2022/08/27 04:54:18;;;;;;;12.55;6.80;;;;;;;14.77;86.41;101638.06;5104437;28;20480;-58
2022/08/27 04:56:44;;;;;;;10.75;6.53;;;;;;;14.79;86.72;101637.88;5104312;28;20031;-56
2022/08/27 04:59:10;;;;;;;11.75;6.50;;;;;;;14.83;87.33;101639.22;5094784;28;20115;-57
2022/08/27 05:01:38;;;;;;;12.70;6.65;;;;;;;14.79;86.69;101629.88;5102432;28;20042;-56
2022/08/27 05:04:03;;;;;;;12.77;7.10;;;;;;;14.86;87.33;101648.72;5102382;28;20050;-58
2022/08/27 05:06:29;;;;;;;14.15;7.03;;;;;;;14.85;86.69;101644.41;5102643;28;20027;-56
2022/08/27 05:08:55;;;;;;;12.65;7.00;;;;;;;14.85;86.79;101645.22;5100087;28;20035;-56
2022/08/27 05:11:22;;;;;;;14.27;7.43;;;;;;;14.84;87.22;101646.22;5098404;28;20133;-56
2022/08/27 05:13:48;;;;;;;13.25;7.68;;;;;;;14.87;86.63;101650.41;5094053;28;20034;-57
2022/08/27 05:16:17;;;;;;;13.73;7.38;;;;;;;14.86;87.32;101641.53;5093964;28;20484;-58
2022/08/27 05:18:44;;;;;;;13.23;7.30;;;;;;;14.93;87.01;101645.22;5102046;28;20381;-56
2022/08/27 05:21:25;;;;;;;13.35;7.20;;;;;;;14.98;87.87;101650.03;5095427;28;20055;-56
2022/08/27 05:23:52;;;;;;;17.88;8.27;;;;;;;15.00;87.91;101648.00;5103756;28;20110;-57
2022/08/27 05:26:17;;;;;;;15.20;7.55;;;;;;;14.99;87.55;101653.56;5104358;28;20024;-56
2022/08/27 05:28:44;;;;;;;12.82;7.18;;;;;;;14.95;87.62;101652.22;5104439;28;20054;-56
2022/08/27 05:31:11;;;;;;;15.93;8.18;;;;;;;14.97;86.62;101651.03;5103129;28;20039;-58
2022/08/27 05:33:38;;;;;;;14.98;7.47;;;;;;;15.03;87.04;101646.84;5088406;28;20031;-56
2022/08/27 05:36:05;;;;;;;15.48;8.20;;;;;;;15.05;87.38;101648.34;5103841;28;20035;-57
2022/08/27 05:38:31;;;;;;;16.27;8.10;;;;;;;14.98;87.11;101651.84;5094872;28;20391;-57
2022/08/27 05:41:09;;;;;;;15.23;7.93;;;;;;;15.00;86.76;101660.56;5096963;28;20040;-57
2022/08/27 05:43:37;;;;;;;18.73;8.25;;;;;;;14.93;87.87;101655.91;5105117;28;20019;-57
2022/08/27 05:46:08;;;;;;;16.85;7.97;;;;;;;15.02;87.70;101647.84;5105413;28;20036;-57
2022/08/27 05:48:34;;;;;;;13.52;8.23;;;;;;;14.96;87.42;101661.88;5108311;28;20047;-57
2022/08/27 05:51:08;;;;;;;16.40;8.65;;;;;;;15.03;87.50;101661.03;5100952;28;20024;-57
2022/08/27 05:53:33;;;;;;;14.80;8.63;;;;;;;15.09;88.42;101659.50;5107093;28;20545;-57
2022/08/27 05:55:59;;;;;;;17.33;8.38;;;;;;;15.10;88.19;101660.34;5107210;28;20055;-58
2022/08/27 06:01:09;;;;;;;15.57;8.48;;;;;;;15.19;87.77;101659.31;5108359;28;20379;-58
2022/08/27 06:03:37;;;;;;;12.95;7.97;;;;;;;15.18;88.90;101661.16;5104128;28;20028;-57
2022/08/27 06:06:09;;;;;;;13.57;7.72;;;;;;;15.23;88.67;101660.63;5092325;28;20127;-58
2022/08/27 06:08:36;;;;;;;15.50;8.98;;;;;;;15.16;88.02;101668.50;5098827;28;20385;-57
2022/08/27 06:11:03;;;;;;;15.20;8.52;;;;;;;15.25;88.00;101668.50;5102589;28;20062;-58
2022/08/27 06:13:30;;;;;;;12.10;8.57;;;;;;;15.27;88.10;101672.66;5108358;28;20095;-57
2022/08/27 06:16:07;;;;;;;16.77;8.60;;;;;;;15.34;89.44;101672.78;5103857;28;20059;-58
2022/08/27 06:18:40;;;;;;;14.38;8.48;;;;;;;15.38;90.00;101678.63;5101915;28;20088;-56
2022/08/27 06:21:06;;;;;;;;;;;;;;;15.51;87.79;101678.06;5104076;28;20036;-56
2022/08/27 06:23:32;;;;;;;17.17;9.27;;;;;;;15.45;88.73;101680.44;5106140;28;20407;-57
2022/08/27 06:25:57;;;;;;;14.32;9.10;;;;;;;15.51;88.85;101675.41;5107000;28;20042;-59
2022/08/27 06:28:28;;;;;;;16.50;8.95;;;;;;;15.51;89.31;101678.06;5107485;28;20476;-57
2022/08/27 06:31:01;;;;;;;15.15;9.05;;;;;;;15.52;89.29;101675.22;5100818;28;20024;-57
2022/08/27 06:33:26;;;;;;;16.10;9.48;;;;;;;15.56;88.93;101681.91;5096490;28;20109;-57
2022/08/27 06:35:51;;;;;;;18.40;9.52;;;;;;;15.55;88.27;101676.72;5102904;28;20027;-56
2022/08/27 06:38:16;;;;;;;17.88;9.65;;;;;;;15.54;88.68;101675.06;5099717;28;20027;-59
2022/08/27 06:40:42;;;;;;;16.15;9.48;;;;;;;15.63;88.79;101675.88;5105901;28;20070;-56
2022/08/27 06:43:07;;;;;;;16.67;9.38;;;;;;;15.64;88.09;101677.53;5106712;28;20031;-57
2022/08/27 06:45:37;;;;;;;15.63;9.27;;;;;;;15.72;88.81;101681.00;5102844;28;20415;-57
2022/08/27 06:48:02;;;;;;;17.58;9.23;;;;;;;15.67;88.48;101683.34;5106526;28;20043;-56
2022/08/27 06:50:28;;;;;;;17.75;8.45;;;;;;;15.72;87.13;101669.44;5106575;28;20499;-59
2022/08/27 06:52:53;;;;;;;15.55;8.68;;;;;;;15.81;87.27;101678.25;5101421;28;20030;-57
2022/08/27 06:55:18;;;;;;;16.27;9.52;;;;;;;15.86;88.41;101675.91;5102394;28;20074;-58
2022/08/27 06:57:43;;;;;;;14.45;8.60;;;;;;;15.83;87.81;101677.06;5103945;28;20043;-57
2022/08/27 07:00:09;;;;;;;15.07;9.18;;;;;;;15.85;88.09;101674.22;5103601;28;20542;-56
2022/08/27 07:02:35;;;;;;;17.35;8.73;;;;;;;15.93;88.12;101681.41;5101983;28;20043;-57
2022/08/27 07:05:00;;;;;;;16.15;8.75;;;;;;;15.90;87.25;101679.88;5104937;28;20024;-56
2022/08/27 07:07:26;;;;;;;16.60;8.38;;;;;;;15.96;88.10;101681.88;5105988;28;20920;-58
2022/08/27 07:09:51;;;;;;;13.85;8.05;;;;;;;15.98;88.63;101685.22;5105872;28;20088;-56
2022/08/27 07:12:16;;;;;;;15.82;9.07;;;;;;;15.93;87.39;101676.88;5101774;28;20115;-55
2022/08/27 07:14:42;;;;;;;13.07;8.40;;;;;;;16.00;87.19;101683.19;5099955;28;20032;-57
2022/08/27 07:17:08;;;;;;;16.58;8.50;;;;;;;16.04;87.12;101688.19;5096264;28;20022;-59
2022/08/27 07:19:37;;;;;;;17.85;8.32;;;;;;;16.14;87.63;101678.09;5105176;28;20126;-59
2022/08/27 07:22:03;;;;;;;14.35;8.27;;;;;;;16.19;86.70;101681.06;5097986;28;20404;-56
2022/08/27 07:24:29;;;;;;;12.27;7.68;;;;;;;16.27;86.35;101682.84;5098025;28;20031;-56
2022/08/27 07:26:54;;;;;;;15.10;7.57;;;;;;;16.27;85.51;101683.69;5105182;28;20036;-59
2022/08/27 07:29:19;;;;;;;16.60;8.27;;;;;;;16.30;85.72;101687.84;5100039;28;20028;-59
2022/08/27 07:31:44;;;;;;;13.90;8.05;;;;;;;16.38;85.58;101684.28;5097827;27;20081;-57
2022/08/27 07:34:10;;;;;;;12.93;7.00;;;;;;;16.41;84.89;101683.91;5105809;28;20023;-56
2022/08/27 07:36:37;;;;;;;10.60;6.30;;;;;;;16.44;83.63;101685.41;5107003;28;20096;-57
2022/08/27 07:39:03;;;;;;;11.02;6.40;;;;;;;16.46;84.18;101686.03;5105628;28;20031;-57
2022/08/27 07:41:30;;;;;;;12.48;6.50;;;;;;;16.49;83.72;101686.50;5094845;28;20041;-56
2022/08/27 07:46:39;;;;;;;10.68;5.40;;;;;;;16.51;81.32;101700.56;5103104;28;20126;-56
2022/08/27 07:49:05;;;;;;;13.00;6.10;;;;;;;16.51;81.95;101695.22;5100181;28;20588;-58
2022/08/27 07:51:31;;;;;;;11.10;6.05;;;;;;;16.58;80.34;101694.50;5098503;28;20035;-58
2022/08/27 07:53:57;;;;;;;10.98;5.93;;;;;;;16.52;81.29;101702.22;5103848;28;20047;-56
2022/08/27 07:56:23;;;;;;;9.52;6.03;;;;;;;16.59;82.01;101701.50;5094704;28;20137;-57
2022/08/27 07:58:49;;;;;;;10.18;5.50;;;;;;;16.65;80.57;101700.78;5097419;28;20099;-57
2022/08/27 08:01:14;;;;;;;11.70;5.55;;;;;;;16.73;81.36;101703.38;5101656;28;20092;-56
2022/08/27 08:03:40;;;;;;;9.90;5.75;;;;;;;16.75;80.44;101706.72;5098752;28;20060;-56
2022/08/27 08:06:10;;;;;;;11.93;5.65;;;;;;;16.78;82.03;101706.34;5101382;28;20050;-56
2022/08/27 08:08:36;;;;;;;10.52;5.50;;;;;;;16.87;80.56;101703.59;5090576;28;20418;-57
2022/08/27 08:11:02;;;;;;;11.23;5.30;;;;;;;17.00;80.75;101706.47;5092355;28;20037;-56
2022/08/27 08:13:28;;;;;;;11.23;5.07;;;;;;;17.04;79.35;101699.78;5104636;28;20023;-56
2022/08/27 08:15:55;;;;;;;9.68;4.78;;;;;;;17.11;78.60;101702.53;5105874;28;20037;-56
2022/08/27 08:18:20;;;;;;;9.82;4.85;;;;;;;17.17;77.14;101698.31;5103837;28;20028;-56
2022/08/27 08:20:46;;;;;;;11.82;4.95;;;;;;;17.18;75.20;101697.28;5096530;28;20046;-56
2022/08/27 08:23:11;;;;;;;9.93;5.05;;;;;;;17.26;77.52;101707.91;5095855;28;20107;-57
2022/08/27 08:25:37;;;;;;;12.32;4.72;;;;;;;17.32;74.91;101701.00;5101914;28;20035;-58
2022/08/27 08:28:02;;;;;;;9.40;5.22;;;;;;;17.38;75.22;101704.75;5105397;28;20027;-55
2022/08/27 08:30:28;;;;;;;8.48;5.07;;;;;;;17.42;74.54;101701.50;5101108;28;20656;-57
2022/08/27 08:32:53;;;;;;;12.05;5.18;;;;;;;17.48;73.77;101710.69;5104096;28;20043;-57
2022/08/27 08:35:19;;;;;;;10.68;5.13;;;;;;;17.55;72.99;101706.22;5091338;28;20089;-58
2022/08/27 08:37:45;;;;;;;9.75;5.05;;;;;;;17.59;74.61;101707.53;5104775;28;20656;-55
2022/08/27 08:40:34;;;;;;;12.00;5.20;;;;;;;17.69;73.61;101707.22;5105022;28;20102;-59
2022/08/27 08:43:00;;;;;;;11.05;5.45;;;;;;;17.70;73.18;101708.03;5097273;28;20031;-57
2022/08/27 08:45:30;;;;;;;9.15;5.13;;;;;;;17.71;72.06;101704.38;5093885;28;20039;-56
2022/08/27 08:48:03;;;;;;;9.07;4.70;;;;;;;17.85;71.49;101699.97;5095389;28;20072;-56
2022/08/27 08:50:35;;;;;;;9.48;4.97;;;;;;;17.98;72.86;101704.66;5094535;27;20032;-57
2022/08/27 08:53:07;;;;;;;9.38;4.97;;;;;;;18.09;70.42;101701.50;5101604;28;20063;-58
2022/08/27 08:55:54;;;;;;;12.10;5.28;;;;;;;18.22;71.67;101695.44;5095612;28;20055;-56
2022/08/27 08:58:52;;;;;;;9.60;5.25;;;;;;;18.39;70.97;101706.75;5098243;28;20028;-56
2022/08/27 09:01:19;;;;;;;8.10;4.18;;;;;;;18.54;69.81;101712.03;5060447;28;20040;-57
2022/08/27 09:03:52;;;;;;;7.97;3.80;;;;;;;18.60;67.24;101706.94;5103403;28;20772;-57
2022/08/27 09:06:36;;;;;;;7.35;3.80;;;;;;;18.69;68.79;101701.22;5104419;28;20022;-56
2022/08/27 09:09:12;;;;;;;6.40;3.60;;;;;;;18.96;67.87;101709.47;5104622;28;20044;-55
2022/08/27 09:11:56;;;;;;;7.60;3.20;;;;;;;19.09;66.53;101705.22;5090103;28;20024;-57
2022/08/27 09:14:29;;;;;;;5.38;2.70;;;;;;;19.03;64.45;101716.75;5095399;28;20031;-56
2022/08/27 09:16:59;;;;;;;5.75;2.70;;;;;;;19.05;64.80;101720.09;5101770;28;20089;-57
2022/08/27 09:19:24;;;;;;;8.45;2.63;;;;;;;19.06;64.55;101716.38;5099464;28;20027;-56
2022/08/27 09:22:00;;;;;;;5.22;2.88;;;;;;;19.04;63.85;101719.25;5096089;28;20039;-56
2022/08/27 09:24:53;;;;;;;8.35;2.95;;;;;;;19.08;64.06;101723.22;5091985;28;20028;-58
2022/08/27 09:27:18;;;;;;;;;;;;;;;19.08;65.48;101720.53;5091821;28;20035;-59
2022/08/27 09:29:50;;;;;;;7.90;2.92;;;;;;;19.09;64.21;101722.19;5101562;28;19915;-57
2022/08/27 09:32:21;;;;;;;7.07;2.95;;;;;;;19.09;62.91;101710.59;5100288;28;20153;-57
2022/08/27 09:34:46;;;;;;;6.78;2.70;;;;;;;19.20;63.84;101718.13;5097541;28;20341;-56
2022/08/27 09:37:21;;;;;;;7.15;2.88;;;;;;;19.17;62.16;101713.16;5095693;28;20038;-57
2022/08/27 09:40:06;;;;;;;7.20;2.83;;;;;;;19.12;63.08;101712.91;5100424;28;20449;-58
2022/08/27 09:42:45;;;;;;;6.47;2.67;;;;;;;18.98;62.88;101714.66;5099720;28;20023;-57
2022/08/27 09:45:22;;;;;;;5.32;2.80;;;;;;;19.02;63.00;101717.75;5102209;28;20042;-59
2022/08/27 09:47:54;;;;;;;7.07;2.83;;;;;;;19.07;62.92;101712.66;5103934;28;20063;-57
2022/08/27 09:50:23;;;;;;;9.20;3.25;;;;;;;19.09;62.32;101705.22;5103290;28;20065;-58
2022/08/27 09:52:58;;;;;;;4.70;2.75;;;;;;;19.26;63.94;101721.03;5102592;28;20604;-57
2022/08/27 09:55:38;;;;;;;6.40;2.95;;;;;;;19.27;61.48;101717.31;5100714;28;20031;-56
2022/08/27 09:58:06;;;;;;;7.32;2.70;;;;;;;19.34;61.44;101719.03;5104385;28;20937;-56
2022/08/27 10:00:39;;;;;;;6.72;3.08;;;;;;;19.49;61.86;101715.38;5102151;28;20052;-56
2022/08/27 10:03:06;;;;;;;5.40;3.00;;;;;;;19.61;60.77;101729.09;5096861;28;20042;-58
2022/08/27 10:05:49;;;;;;;5.47;2.83;;;;;;;19.72;60.40;101725.81;5101301;28;20031;-56
2022/08/27 10:08:40;;;;;;;5.90;3.03;;;;;;;19.68;60.84;101713.78;5098676;28;20154;-56
2022/08/27 10:11:13;;;;;;;6.32;2.85;;;;;;;19.80;59.18;101722.13;5101277;28;20718;-56
2022/08/27 10:14:02;;;;;;;5.90;2.85;;;;;;;19.83;59.38;101726.28;5084698;28;20045;-57
2022/08/27 10:16:53;;;;;;;6.07;3.03;;;;;;;19.97;60.40;101711.84;5097770;28;20460;-57
2022/08/27 10:19:37;;;;;;;6.25;2.80;;;;;;;19.86;59.38;101715.09;5099846;28;20489;-56
2022/08/27 10:22:10;;;;;;;9.55;3.15;;;;;;;20.04;60.10;101709.19;5098601;28;20067;-57
2022/08/27 10:24:41;;;;;;;7.97;3.13;;;;;;;20.31;59.05;101716.47;5101982;28;20091;-57
2022/08/27 10:27:19;;;;;;;7.70;3.22;;;;;;;20.22;58.09;101713.16;5100901;28;20031;-56
2022/08/27 10:30:04;;;;;;;10.18;3.00;;;;;;;20.22;59.09;101708.59;5107197;28;20517;-58
2022/08/27 10:32:42;;;;;;;6.50;3.10;;;;;;;20.07;58.20;101710.66;5103329;28;20031;-57
2022/08/27 10:35:19;;;;;;;7.93;3.28;;;;;;;19.89;60.34;101706.63;5106736;28;20385;-56
2022/08/27 10:37:51;;;;;;;5.88;2.95;;;;;;;19.75;59.57;101689.63;5096874;28;20038;-56
2022/08/27 10:40:35;;;;;;;7.43;3.30;;;;;;;19.71;60.96;101702.66;5101375;28;20043;-58
2022/08/27 10:43:30;;;;;;;6.85;3.05;;;;;;;19.62;60.32;101701.16;5106849;28;20100;-56
2022/08/27 10:46:33;;;;;;;6.97;3.35;;;;;;;19.57;60.59;101701.75;5090623;28;20113;-57
2022/08/27 10:49:52;;;;;;;5.40;3.00;;;;;;;19.53;62.23;101700.50;5094851;28;20047;-57
2022/08/27 10:52:25;;;;;;;9.35;2.97;;;;;;;19.49;61.65;101705.44;5032562;28;20110;-55
2022/08/27 10:55:11;;;;;;;5.70;3.25;;;;;;;19.44;61.02;101696.31;5107624;28;20039;-59
2022/08/27 10:57:47;;;;;;;7.50;3.13;;;;;;;19.46;61.87;101699.63;5099797;28;20442;-56
2022/08/27 11:00:18;;;;;;;6.60;2.70;;;;;;;19.44;60.43;101685.56;5100768;28;20106;-56
2022/08/27 11:02:55;;;;;;;7.65;3.35;;;;;;;19.62;63.13;101695.78;5106685;28;20038;-56
2022/08/27 11:05:27;;;;;;;9.02;3.38;;;;;;;19.60;60.77;101695.16;5105216;28;20491;-58
2022/08/27 11:07:57;;;;;;;;;;;;;;;19.77;62.41;101701.00;5101044;28;20040;-56
2022/08/27 11:10:29;;;;;;;5.88;2.80;;;;;;;19.70;58.76;101692.91;5097853;28;19965;-56
2022/08/27 11:13:02;;;;;;;4.88;2.78;;;;;;;19.74;58.67;101702.22;5100386;28;20047;-56
2022/08/27 11:15:31;;;;;;;4.68;2.58;;;;;;;19.71;58.34;101697.25;5098969;28;20028;-57
2022/08/27 11:18:33;;;;;;;7.63;2.60;;;;;;;19.70;59.20;101701.00;5098067;28;20135;-58
2022/08/27 11:21:04;;;;;;;6.75;2.50;;;;;;;19.70;59.62;101687.53;5097178;28;20109;-58
2022/08/27 11:23:39;;;;;;;6.57;2.78;;;;;;;19.84;60.20;101692.94;5099013;28;20023;-57
2022/08/27 11:26:06;;;;;;;6.07;2.72;;;;;;;19.91;61.13;101696.47;5100254;28;20135;-56
2022/08/27 11:28:40;;;;;;;5.70;2.50;;;;;;;19.98;60.09;101691.97;5100758;28;20036;-57
2022/08/27 11:31:05;;;;;;;7.72;2.78;;;;;;;20.10;60.48;101694.06;5100776;28;20533;-55
2022/08/27 11:33:47;;;;;;;4.40;2.50;;;;;;;20.21;61.00;101688.09;5102284;28;20019;-57
2022/08/27 11:36:44;;;;;;;8.93;2.60;;;;;;;20.23;60.10;101683.31;5100820;28;20035;-57
2022/08/27 11:39:15;;;;;;;5.20;2.40;;;;;;;20.25;59.42;101686.66;5097438;28;20036;-55